Terminal Aerodrome Forecast
Issued by NWS Corpus Christi, TX

Home | Current Version | Previous Version | Text Only | Print | Product List | Glossary On
Versions: 1 2 3 4 5 6 7 8 9 10 11 12 13 14 15 16 17 18 19 20 21
039
FTUS44 KCRP 040520
TAFCRP
TAF
KCRP 040520Z 0406/0506 36014KT 6SM -SHRA BR FEW010 OVC070
      TEMPO 0406/0410 VRB17G25KT 4SM +TSRA BKN011CB OVC035
     FM041000 03015G20KT 5SM -SHRA BR BKN007 OVC013
     FM041500 02015G20KT 6SM -RA BR OVC006=

USA.gov is the U.S. government's official web portal to all federal, state and local government web resources and services.